createdAt,value
2023-02-02T00:01:17.635Z,5.45
2023-02-02T00:02:27.232Z,5.29
2023-02-02T00:03:37.564Z,5.14
2023-02-02T00:04:46.190Z,5.04
2023-02-02T00:05:55.897Z,4.71
2023-02-02T00:07:06.069Z,4.68
2023-02-02T00:08:20.583Z,4.55
2023-02-02T00:09:31.462Z,4.50
2023-02-02T00:10:41.372Z,4.40
2023-02-02T00:11:51.190Z,4.46
2023-02-02T00:13:00.323Z,4.53
2023-02-02T00:14:10.384Z,4.61
2023-02-02T00:15:19.545Z,4.63
2023-02-02T00:17:47.845Z,4.85
2023-02-02T00:18:59.932Z,4.76
2023-02-02T00:20:10.051Z,4.73
2023-02-02T00:21:18.568Z,4.83
2023-02-02T00:22:27.908Z,4.90
2023-02-02T00:23:37.265Z,4.70
2023-02-02T00:24:47.511Z,4.56
2023-02-02T00:25:57.043Z,4.53
2023-02-02T00:27:05.972Z,4.58
2023-02-02T00:28:16.007Z,4.60
2023-02-02T00:29:27.416Z,4.60
2023-02-02T00:30:38.166Z,4.51
2023-02-02T00:31:49.089Z,4.45
2023-02-02T00:32:58.281Z,4.54
2023-02-02T00:34:07.521Z,4.46
2023-02-02T00:35:16.934Z,4.47
2023-02-02T00:36:25.950Z,4.59
2023-02-02T00:37:35.378Z,4.70
2023-02-02T00:38:45.342Z,4.67
2023-02-02T00:39:54.450Z,4.74
2023-02-02T00:41:03.907Z,4.84
2023-02-02T00:42:12.842Z,4.82
2023-02-02T00:43:21.557Z,4.77
2023-02-02T00:44:49.617Z,4.85
2023-02-02T00:45:59.454Z,4.81
2023-02-02T00:47:08.816Z,4.86
2023-02-02T00:48:19.265Z,4.97
2023-02-02T00:49:29.035Z,4.99
2023-02-02T00:50:38.117Z,4.99
2023-02-02T00:51:46.730Z,4.93
2023-02-02T00:52:58.416Z,5.01
2023-02-02T00:54:08.071Z,4.94
2023-02-02T00:55:18.887Z,4.78
2023-02-02T00:56:28.425Z,4.63
2023-02-02T00:57:39.015Z,4.75
2023-02-02T00:58:48.105Z,4.67
2023-02-02T00:59:57.209Z,4.56
2023-02-02T01:02:27.912Z,4.65
2023-02-02T01:03:37.531Z,4.48
2023-02-02T01:04:46.605Z,4.49
2023-02-02T01:05:55.721Z,4.53
2023-02-02T01:07:06.227Z,4.65
2023-02-02T01:08:15.737Z,4.66
2023-02-02T01:09:24.354Z,4.51
2023-02-02T01:10:34.797Z,4.59
2023-02-02T01:11:44.097Z,4.53
2023-02-02T01:12:54.016Z,4.51
2023-02-02T01:14:03.136Z,4.42
2023-02-02T01:15:12.994Z,4.50
2023-02-02T01:17:37.604Z,4.75
2023-02-02T01:18:46.641Z,4.68
2023-02-02T01:19:55.425Z,4.60
2023-02-02T01:21:07.641Z,4.48
2023-02-02T01:22:19.007Z,4.18
2023-02-02T01:23:29.415Z,4.46
2023-02-02T01:24:38.035Z,4.51
2023-02-02T01:27:06.358Z,4.50
2023-02-02T01:28:14.896Z,4.45
2023-02-02T01:29:25.593Z,4.49
2023-02-02T01:31:50.988Z,4.22
2023-02-02T01:33:01.737Z,4.23
2023-02-02T01:34:12.204Z,4.34
2023-02-02T01:35:23.295Z,4.34
2023-02-02T01:36:32.878Z,4.40
2023-02-02T01:37:42.553Z,4.28
2023-02-02T01:38:52.279Z,4.41
2023-02-02T01:40:01.394Z,4.51
2023-02-02T01:41:15.154Z,4.57
2023-02-02T01:42:25.832Z,4.36
2023-02-02T01:43:47.402Z,4.58
2023-02-02T01:46:29.773Z,4.76
2023-02-02T01:47:45.171Z,4.75
2023-02-02T01:49:01.149Z,4.72
2023-02-02T01:50:13.582Z,4.85
2023-02-02T01:51:26.892Z,4.85
2023-02-02T01:52:38.242Z,4.77
2023-02-02T01:53:49.277Z,4.67
2023-02-02T01:55:03.825Z,4.44
2023-02-02T01:56:18.406Z,4.40
2023-02-02T01:57:32.089Z,4.17
2023-02-02T01:58:42.782Z,4.22
2023-02-02T01:59:55.754Z,4.15
2023-02-02T02:01:07.829Z,4.09
2023-02-02T02:02:18.063Z,4.18
2023-02-02T02:03:32.457Z,4.12
2023-02-02T02:04:42.533Z,4.31
2023-02-02T02:07:13.724Z,4.55
2023-02-02T02:08:38.651Z,4.45
2023-02-02T02:09:48.093Z,4.32
2023-02-02T02:10:58.918Z,4.23
2023-02-02T02:13:52.350Z,4.34
2023-02-02T02:15:22.393Z,4.41
2023-02-02T02:18:37.853Z,4.72
2023-02-02T02:20:42.209Z,4.74
2023-02-02T02:22:23.059Z,4.84
2023-02-02T02:23:57.473Z,4.87
2023-02-02T02:25:38.102Z,4.97
2023-02-02T02:26:51.591Z,5.05
2023-02-02T02:28:24.239Z,5.15
2023-02-02T02:31:30.746Z,5.40
2023-02-02T02:33:04.693Z,5.40
2023-02-02T02:34:36.933Z,5.40
2023-02-02T02:37:20.762Z,5.34
2023-02-02T02:38:43.139Z,5.04
2023-02-02T02:39:56.264Z,4.98
2023-02-02T02:42:31.953Z,4.51
2023-02-02T02:43:53.939Z,4.10
2023-02-02T02:45:06.123Z,4.01
2023-02-02T02:46:16.209Z,3.90
2023-02-02T02:47:27.677Z,3.82
2023-02-02T02:48:36.887Z,3.71
2023-02-02T02:49:48.101Z,3.78
2023-02-02T02:51:08.661Z,3.89
2023-02-02T02:52:18.896Z,3.79
2023-02-02T02:53:28.796Z,3.94
2023-02-02T02:54:53.008Z,4.13
2023-02-02T02:56:06.856Z,3.97
2023-02-02T03:00:41.933Z,4.34
2023-02-02T03:02:17.632Z,4.29
2023-02-02T03:05:33.950Z,4.53
2023-02-02T03:06:46.770Z,4.57
2023-02-02T03:09:41.430Z,4.95
2023-02-02T03:10:52.194Z,4.92
2023-02-02T03:12:01.539Z,4.77
2023-02-02T03:13:13.200Z,4.72
2023-02-02T03:14:24.272Z,4.84
2023-02-02T03:15:33.326Z,4.33
2023-02-02T03:16:42.299Z,4.48
2023-02-02T03:17:53.149Z,4.54
2023-02-02T03:19:02.200Z,4.52
2023-02-02T03:20:12.363Z,4.16
2023-02-02T03:21:21.409Z,4.23
2023-02-02T03:22:31.133Z,4.41
2023-02-02T03:23:41.850Z,4.49
2023-02-02T03:24:51.597Z,4.56
2023-02-02T03:26:01.016Z,4.61
2023-02-02T03:27:11.534Z,4.49
2023-02-02T03:28:23.594Z,4.66
2023-02-02T03:29:33.178Z,4.52
2023-02-02T03:30:44.602Z,4.56
2023-02-02T03:31:54.516Z,4.48
2023-02-02T03:33:04.678Z,4.42
2023-02-02T03:35:28.947Z,4.64
2023-02-02T03:36:38.032Z,4.44
2023-02-02T03:37:48.933Z,4.43
2023-02-02T03:38:58.955Z,4.37
2023-02-02T03:40:09.660Z,4.47
2023-02-02T03:41:19.292Z,4.46
2023-02-02T05:51:03.256Z,2.01
2023-02-02T05:52:17.765Z,2.01
2023-02-02T05:53:32.658Z,2.09
2023-02-02T05:54:42.976Z,2.16
2023-02-02T05:55:52.773Z,2.24
2023-02-02T05:57:03.709Z,2.43
2023-02-02T05:59:29.746Z,2.89
2023-02-02T06:00:39.099Z,2.92
2023-02-02T06:01:48.611Z,3.11
2023-02-02T06:02:57.146Z,3.23
2023-02-02T06:04:07.016Z,3.36
2023-02-02T06:05:16.243Z,3.53
2023-02-02T06:06:25.284Z,3.56
2023-02-02T06:07:34.511Z,3.61
2023-02-02T06:08:43.245Z,3.72
2023-02-02T06:09:52.666Z,3.77
2023-02-02T06:11:17.266Z,3.84
2023-02-02T06:12:26.080Z,3.85
2023-02-02T06:13:35.312Z,3.93
2023-02-02T06:14:45.000Z,3.99
2023-02-02T06:15:58.969Z,4.15
2023-02-02T06:17:08.766Z,4.26
2023-02-02T06:18:18.832Z,4.13
2023-02-02T06:19:27.374Z,4.17
2023-02-02T06:20:37.665Z,4.09
2023-02-02T06:21:46.093Z,4.26
2023-02-02T06:22:54.956Z,4.28
2023-02-02T06:24:04.705Z,4.31
2023-02-02T06:25:14.351Z,4.39
2023-02-02T06:27:38.805Z,4.63
2023-02-02T06:28:52.926Z,4.49
2023-02-02T06:30:01.923Z,4.41
2023-02-02T06:31:12.194Z,4.37
2023-02-02T06:32:21.979Z,4.38
2023-02-02T06:33:31.004Z,4.49
2023-02-02T06:34:40.659Z,4.24
2023-02-02T06:35:49.162Z,4.30
2023-02-02T06:36:58.982Z,4.34
2023-02-02T06:38:07.598Z,4.38
2023-02-02T06:40:31.560Z,4.54
2023-02-02T06:41:41.095Z,4.51
2023-02-02T06:43:02.998Z,4.57
2023-02-02T06:44:15.285Z,4.53
2023-02-02T06:45:25.045Z,4.68
2023-02-02T06:46:34.687Z,4.70
2023-02-02T06:47:43.881Z,4.75
2023-02-02T06:48:53.714Z,4.82
2023-02-02T06:51:19.951Z,4.90
2023-02-02T06:52:29.077Z,4.83
2023-02-02T06:53:38.408Z,4.77
2023-02-02T06:54:47.421Z,4.85
2023-02-02T06:55:59.615Z,4.91
2023-02-02T06:57:08.941Z,4.89
2023-02-02T06:58:18.667Z,4.93
2023-02-02T06:59:27.423Z,4.94
2023-02-02T07:01:54.692Z,5.00
2023-02-02T07:03:04.161Z,4.79
2023-02-02T07:04:12.689Z,4.83
2023-02-02T07:05:23.653Z,4.64
2023-02-02T07:06:33.840Z,4.70
2023-02-02T07:07:43.313Z,4.69
2023-02-02T07:09:01.845Z,4.74
2023-02-02T07:10:05.520Z,4.68
2023-02-02T07:11:16.587Z,4.65
2023-02-02T07:12:26.564Z,4.75
2023-02-02T07:13:35.416Z,4.80
2023-02-02T07:14:44.930Z,4.83
2023-02-02T07:15:55.250Z,4.82
2023-02-02T07:17:05.209Z,4.80
2023-02-02T07:18:16.128Z,4.80
2023-02-02T07:19:25.058Z,4.77
2023-02-02T07:21:52.899Z,4.93
2023-02-02T07:23:03.935Z,4.83
2023-02-02T07:24:14.497Z,4.82
2023-02-02T07:25:23.997Z,4.75
2023-02-02T07:26:35.716Z,4.75
2023-02-02T07:27:46.269Z,4.81
2023-02-02T07:28:55.514Z,4.95
2023-02-02T07:30:05.385Z,5.10
2023-02-02T07:31:19.970Z,5.23
2023-02-02T07:32:29.353Z,5.30
2023-02-02T07:33:40.393Z,5.41
2023-02-02T07:36:07.274Z,5.66
2023-02-02T07:38:32.153Z,5.72
2023-02-02T07:39:43.954Z,5.61
2023-02-02T07:42:09.540Z,5.64
2023-02-02T07:43:20.759Z,5.50
2023-02-02T07:44:30.616Z,5.45
2023-02-02T07:45:39.572Z,5.39
2023-02-02T07:48:04.087Z,5.41
2023-02-02T07:49:16.098Z,5.24
2023-02-02T07:50:26.147Z,5.18
2023-02-02T07:51:37.844Z,5.10
2023-02-02T07:52:46.166Z,5.00
2023-02-02T07:53:57.714Z,4.90
2023-02-02T07:55:14.861Z,4.88
2023-02-02T07:56:24.287Z,4.85
2023-02-02T07:57:32.966Z,4.84
2023-02-02T07:58:42.689Z,4.89
2023-02-02T08:01:11.735Z,5.16
2023-02-02T08:02:21.203Z,5.17
2023-02-02T08:03:30.154Z,5.28
2023-02-02T08:04:39.516Z,5.42
2023-02-02T08:05:49.294Z,5.53
2023-02-02T08:06:58.720Z,5.66
2023-02-02T08:08:08.662Z,5.72
2023-02-02T08:09:17.311Z,5.70
2023-02-02T08:10:26.229Z,5.65
2023-02-02T08:11:37.535Z,5.64
2023-02-02T08:12:46.115Z,5.65
2023-02-02T08:14:00.468Z,5.66
2023-02-02T08:15:11.835Z,5.67
2023-02-02T08:16:23.360Z,5.69
2023-02-02T08:17:32.052Z,5.64
2023-02-02T08:18:41.945Z,5.55
2023-02-02T08:19:51.526Z,5.50
2023-02-02T08:22:20.388Z,5.45
2023-02-02T08:24:46.828Z,5.27
2023-02-02T08:26:09.845Z,5.14
2023-02-02T08:27:18.320Z,5.14
2023-02-02T08:28:28.039Z,5.11
2023-02-02T08:29:39.465Z,5.10
2023-02-02T08:30:48.832Z,5.11
2023-02-02T08:31:59.290Z,5.12
2023-02-02T08:33:08.590Z,5.11
2023-02-02T08:34:17.131Z,5.16
2023-02-02T08:35:27.205Z,5.27
2023-02-02T08:36:36.376Z,5.42
2023-02-02T08:37:48.828Z,5.57
2023-02-02T08:40:25.206Z,5.92
2023-02-02T08:41:36.483Z,5.87
2023-02-02T08:42:47.574Z,5.91
2023-02-02T08:46:02.972Z,6.09
2023-02-02T08:46:24.904Z,6.00
2023-02-02T08:47:34.670Z,6.01
2023-02-02T08:48:44.747Z,6.03
2023-02-02T08:49:53.983Z,6.05
2023-02-02T08:51:04.082Z,6.02
2023-02-02T08:52:12.869Z,6.01
2023-02-02T08:53:22.844Z,6.01
2023-02-02T08:54:32.498Z,6.04
2023-02-02T08:55:41.404Z,6.06
2023-02-02T08:56:50.164Z,6.08
2023-02-02T08:57:58.687Z,6.10
2023-02-02T08:59:08.818Z,6.12
2023-02-02T09:01:35.532Z,6.16
2023-02-02T09:02:44.857Z,6.02
2023-02-02T09:03:59.185Z,5.99
2023-02-02T09:05:08.516Z,6.00
2023-02-02T09:06:20.973Z,6.00
2023-02-02T09:07:32.932Z,5.99
2023-02-02T09:08:43.012Z,6.00
2023-02-02T09:09:54.404Z,6.04
2023-02-02T09:12:26.921Z,6.13
2023-02-02T09:13:37.561Z,6.03
2023-02-02T09:14:46.638Z,6.05
2023-02-02T09:16:00.695Z,6.05
2023-02-02T09:17:10.451Z,6.08
2023-02-02T09:18:18.989Z,6.06
2023-02-02T09:20:43.027Z,6.16
2023-02-02T09:23:07.588Z,6.16
2023-02-02T09:24:17.749Z,6.09
2023-02-02T09:25:27.957Z,6.10
2023-02-02T09:26:38.246Z,6.11
2023-02-02T09:27:47.216Z,6.14
2023-02-02T09:29:05.888Z,6.16
2023-02-02T09:30:16.716Z,6.18
2023-02-02T09:31:26.307Z,6.22
2023-02-02T09:32:35.335Z,6.21
2023-02-02T09:33:44.435Z,6.21
2023-02-02T09:34:53.342Z,6.20
2023-02-02T09:36:11.542Z,6.21
2023-02-02T09:37:21.205Z,6.17
2023-02-02T09:38:30.749Z,6.01
2023-02-02T09:39:41.161Z,5.87
2023-02-02T09:44:01.563Z,5.70
2023-02-02T09:47:20.790Z,5.57
2023-02-02T09:48:59.783Z,5.43
2023-02-02T09:50:24.665Z,5.47
2023-02-02T09:51:38.258Z,5.49
2023-02-02T09:53:08.034Z,5.50
2023-02-02T09:54:36.100Z,5.50
2023-02-02T09:55:52.336Z,5.51
2023-02-02T09:57:05.308Z,5.54
2023-02-02T09:58:26.678Z,5.61
2023-02-02T09:59:39.390Z,5.69
2023-02-02T10:01:08.950Z,5.73
2023-02-02T10:02:30.341Z,5.70
2023-02-02T10:04:01.536Z,5.62
2023-02-02T10:05:25.664Z,5.68
2023-02-02T10:06:47.173Z,5.73
2023-02-02T10:07:59.949Z,5.76
2023-02-02T10:10:31.228Z,5.83
2023-02-02T10:12:03.480Z,5.75
2023-02-02T10:13:28.586Z,5.80
2023-02-02T10:17:46.652Z,6.00
2023-02-02T10:20:39.093Z,5.94
2023-02-02T10:23:29.910Z,5.93
2023-02-02T10:24:39.384Z,5.80
2023-02-02T10:25:57.623Z,5.79
2023-02-02T10:27:13.044Z,5.82
2023-02-02T10:28:27.450Z,5.86
2023-02-02T10:29:49.116Z,5.78
2023-02-02T10:32:26.995Z,5.83
2023-02-02T10:33:40.850Z,5.73
2023-02-02T10:35:22.017Z,5.52
2023-02-02T10:36:37.635Z,5.56
2023-02-02T10:37:57.280Z,5.50
2023-02-02T10:41:21.813Z,5.57
2023-02-02T10:44:39.662Z,5.46
2023-02-02T10:47:10.539Z,5.34
2023-02-02T10:48:27.907Z,5.25
2023-02-02T10:49:38.200Z,5.24
2023-02-02T10:50:50.286Z,5.25
2023-02-02T10:52:18.730Z,5.23
2023-02-02T10:53:30.376Z,5.24
2023-02-02T10:55:04.507Z,5.25
2023-02-02T10:56:14.928Z,5.20
2023-02-02T10:58:59.275Z,5.23
2023-02-02T11:01:29.988Z,5.20
2023-02-02T11:02:39.191Z,5.08
2023-02-02T11:03:51.491Z,5.10
2023-02-02T11:05:19.585Z,5.16
2023-02-02T11:06:47.514Z,5.23
2023-02-02T11:07:58.035Z,5.28
2023-02-02T11:10:28.503Z,5.48
2023-02-02T11:11:44.829Z,5.45
2023-02-02T11:13:00.035Z,5.53
2023-02-02T11:15:31.810Z,5.73
2023-02-02T11:18:29.536Z,5.87
2023-02-02T11:19:39.842Z,5.80
2023-02-02T11:22:05.937Z,5.89
2023-02-02T11:24:49.006Z,5.98
2023-02-02T11:26:00.888Z,5.89
2023-02-02T11:28:41.019Z,6.00
2023-02-02T11:29:52.970Z,5.88
2023-02-02T11:31:02.609Z,5.87
2023-02-02T11:32:29.035Z,5.83
2023-02-02T11:33:37.767Z,5.79
2023-02-02T11:34:46.483Z,5.78
2023-02-02T11:35:59.316Z,5.80
2023-02-02T11:37:18.006Z,5.83
2023-02-02T11:38:27.488Z,5.78
2023-02-02T11:39:37.262Z,5.73
2023-02-02T11:40:56.361Z,5.66
2023-02-02T11:42:08.825Z,5.63
2023-02-02T11:44:42.190Z,5.48
2023-02-02T11:47:28.590Z,5.55
2023-02-02T11:48:39.796Z,5.50
2023-02-02T11:49:51.912Z,5.57
2023-02-02T11:51:04.074Z,5.59
2023-02-02T11:52:20.816Z,5.61
2023-02-02T11:53:49.408Z,5.61
2023-02-02T11:56:21.257Z,5.72
2023-02-02T11:57:30.215Z,5.60
2023-02-02T11:58:57.835Z,5.58
2023-02-02T12:00:19.409Z,5.59
2023-02-02T12:01:32.929Z,5.29
2023-02-02T12:04:19.285Z,5.65
2023-02-02T12:05:34.993Z,5.53
2023-02-02T12:06:45.349Z,5.56
2023-02-02T12:07:54.275Z,5.60
2023-02-02T12:09:13.922Z,5.64
2023-02-02T12:10:33.501Z,5.70
2023-02-02T12:12:10.799Z,5.75
2023-02-02T12:13:34.284Z,5.82
2023-02-02T12:15:17.553Z,5.87
2023-02-02T12:18:39.512Z,5.96
2023-02-02T12:21:33.693Z,5.98
2023-02-02T12:26:25.139Z,6.05
2023-02-02T12:29:36.507Z,6.02
2023-02-02T12:31:04.284Z,5.92
2023-02-02T12:35:31.015Z,6.16
2023-02-02T12:38:32.565Z,6.20
2023-02-02T12:41:51.009Z,6.14
2023-02-02T12:43:12.931Z,6.02
2023-02-02T12:47:57.713Z,6.07
2023-02-02T12:52:02.716Z,6.20
2023-02-02T12:53:36.231Z,6.10
2023-02-02T12:54:56.722Z,6.11
2023-02-02T12:57:52.872Z,6.32
2023-02-02T13:02:21.811Z,6.36
2023-02-02T13:05:25.893Z,6.30
2023-02-02T13:06:44.988Z,6.20
2023-02-02T13:10:09.769Z,6.26
2023-02-02T13:16:07.443Z,6.10
2023-02-02T13:18:57.886Z,6.00
2023-02-02T13:20:10.698Z,5.87
2023-02-02T13:21:24.533Z,5.88
2023-02-02T13:23:06.679Z,5.87
2023-02-02T13:24:17.248Z,5.88
2023-02-02T13:25:30.527Z,5.92
2023-02-02T13:28:01.199Z,5.92
2023-02-02T13:29:19.479Z,5.83
2023-02-02T13:30:35.543Z,5.81
2023-02-02T13:31:57.608Z,5.78
2023-02-02T13:34:56.298Z,5.81
2023-02-02T13:37:53.403Z,5.83
2023-02-02T13:40:40.908Z,5.80
2023-02-02T13:41:53.387Z,5.70
2023-02-02T13:43:18.010Z,5.71
2023-02-02T13:46:06.151Z,5.75
2023-02-02T13:49:00.481Z,5.70
2023-02-02T13:52:00.970Z,5.71
2023-02-02T13:53:40.235Z,5.63
2023-02-02T13:56:41.136Z,5.70
2023-02-02T13:58:22.333Z,5.56
2023-02-02T14:01:08.778Z,5.53
2023-02-02T14:02:24.898Z,5.38
2023-02-02T14:08:24.232Z,5.18
2023-02-02T14:09:37.057Z,5.19
2023-02-02T14:10:55.532Z,5.18
2023-02-02T14:12:07.925Z,5.20
2023-02-02T14:14:53.446Z,5.32
2023-02-02T14:16:05.595Z,5.25
2023-02-02T14:17:18.782Z,5.27
2023-02-02T14:18:51.244Z,5.29
2023-02-02T14:20:03.892Z,5.28
2023-02-02T14:22:44.296Z,5.41
2023-02-02T14:23:55.298Z,5.29
2023-02-02T14:25:25.143Z,5.26
2023-02-02T14:26:53.821Z,5.21
2023-02-02T14:28:12.211Z,5.15
2023-02-02T14:29:38.295Z,5.13
2023-02-02T14:30:52.049Z,5.11
2023-02-02T14:32:29.542Z,5.09
2023-02-02T14:33:42.167Z,5.03
2023-02-02T14:36:16.536Z,5.05
2023-02-02T14:37:32.303Z,4.89
2023-02-02T14:39:00.511Z,4.88
2023-02-02T14:41:53.607Z,4.97
2023-02-02T14:43:39.262Z,4.87
2023-02-02T14:46:35.744Z,5.02
2023-02-02T14:49:15.463Z,5.00
2023-02-02T14:51:55.488Z,4.83
2023-02-02T14:53:14.532Z,4.67
2023-02-02T14:54:28.072Z,4.60
2023-02-02T14:57:27.908Z,4.70
2023-02-02T14:58:40.034Z,4.60
2023-02-02T14:59:51.159Z,4.61
2023-02-02T15:03:53.283Z,4.70
2023-02-02T15:05:33.396Z,4.60
2023-02-02T15:06:43.459Z,4.63
2023-02-02T15:07:55.382Z,4.65
2023-02-02T15:09:27.629Z,4.67
2023-02-02T15:10:53.390Z,4.64
2023-02-02T15:13:23.642Z,4.66
2023-02-02T15:14:46.415Z,4.54
2023-02-02T15:16:06.938Z,4.50
2023-02-02T15:17:36.071Z,4.48
2023-02-02T15:18:48.270Z,4.44
2023-02-02T15:22:01.085Z,4.51
2023-02-02T15:23:22.449Z,4.38
2023-02-02T15:24:34.382Z,4.33
2023-02-02T15:26:01.860Z,4.31
2023-02-02T15:27:17.174Z,4.30
2023-02-02T15:28:39.284Z,4.29
2023-02-02T15:31:24.588Z,4.39
2023-02-02T15:32:35.535Z,4.31
2023-02-02T15:36:34.601Z,4.41
2023-02-02T15:37:47.691Z,4.31
2023-02-02T15:40:25.185Z,4.29
2023-02-02T15:41:42.806Z,4.20
2023-02-02T15:43:01.576Z,4.18
2023-02-02T15:45:48.080Z,4.20
2023-02-02T15:47:01.774Z,4.17
2023-02-02T15:49:36.520Z,4.64
2023-02-02T15:52:32.849Z,4.99
2023-02-02T15:53:45.294Z,5.00
2023-02-02T15:54:57.387Z,5.16
2023-02-02T15:56:22.926Z,5.27
2023-02-02T15:57:35.302Z,5.34
2023-02-02T15:58:53.939Z,5.32
2023-02-02T16:00:23.024Z,5.28
2023-02-02T16:01:35.460Z,5.26
2023-02-02T16:02:45.807Z,5.24
2023-02-02T16:05:26.795Z,5.29
2023-02-02T16:06:36.004Z,5.13
2023-02-02T16:07:53.205Z,5.13
2023-02-02T16:08:56.996Z,5.12
2023-02-02T16:10:07.469Z,5.13
2023-02-02T16:11:19.259Z,5.09
2023-02-02T16:12:30.213Z,5.03
2023-02-02T16:13:40.363Z,4.94
2023-02-02T16:14:56.170Z,4.83
2023-02-02T16:16:08.970Z,4.76
2023-02-02T16:17:30.073Z,4.70
2023-02-02T16:18:39.227Z,4.68
2023-02-02T16:21:10.099Z,4.64
2023-02-02T16:22:26.260Z,4.55
2023-02-02T16:23:37.791Z,4.64
2023-02-02T16:24:56.930Z,4.75
2023-02-02T16:26:07.685Z,4.84
2023-02-02T16:27:22.207Z,4.95
2023-02-02T16:28:32.035Z,5.05
2023-02-02T16:29:42.247Z,5.11
2023-02-02T16:30:52.975Z,5.10
2023-02-02T16:32:06.122Z,5.05
2023-02-02T16:33:39.320Z,5.03
2023-02-02T16:34:49.395Z,4.97
2023-02-02T16:35:58.170Z,4.93
2023-02-02T16:37:26.980Z,4.92
2023-02-02T16:38:38.937Z,4.93
2023-02-02T16:39:49.636Z,4.97
2023-02-02T16:42:34.497Z,5.31
2023-02-02T16:43:43.749Z,5.25
2023-02-02T16:44:52.974Z,5.38
2023-02-02T16:46:13.140Z,5.46
2023-02-02T16:47:31.426Z,5.49
2023-02-02T16:48:46.498Z,5.45
2023-02-02T16:50:12.707Z,5.39
2023-02-02T16:51:25.300Z,5.37
2023-02-02T16:52:37.600Z,5.32
2023-02-02T16:53:50.088Z,5.26
2023-02-02T16:54:59.756Z,5.19
2023-02-02T16:56:10.627Z,5.16
2023-02-02T16:57:28.224Z,5.08
2023-02-02T16:59:58.886Z,5.06
2023-02-02T17:01:16.397Z,4.91
2023-02-02T17:03:53.999Z,4.89
2023-02-02T17:05:06.456Z,4.75
2023-02-02T17:06:17.235Z,4.70
2023-02-02T17:07:28.409Z,4.65
2023-02-02T17:08:41.341Z,4.60
2023-02-02T17:09:52.235Z,4.54
2023-02-02T17:11:07.658Z,4.49
2023-02-02T17:12:36.196Z,4.46
2023-02-02T17:13:36.273Z,4.40
2023-02-02T17:15:03.864Z,4.39
2023-02-02T17:16:19.630Z,4.42
2023-02-02T17:17:29.126Z,4.52
2023-02-02T17:18:38.054Z,4.63
2023-02-02T17:19:48.294Z,4.69
2023-02-02T17:21:02.323Z,4.71
2023-02-02T17:22:11.429Z,4.80
2023-02-02T17:23:20.402Z,4.84
2023-02-02T17:25:46.977Z,4.96
2023-02-02T17:26:56.337Z,4.81
2023-02-02T17:28:14.514Z,4.75
2023-02-02T17:29:24.573Z,4.73
2023-02-02T17:30:34.224Z,4.69
2023-02-02T17:31:43.372Z,4.64
2023-02-02T17:32:52.084Z,4.65
2023-02-02T17:34:00.798Z,4.72
2023-02-02T17:36:32.497Z,4.87
2023-02-02T17:37:42.295Z,4.73
2023-02-02T17:40:08.827Z,4.99
2023-02-02T17:41:18.352Z,4.89
2023-02-02T17:42:30.624Z,4.86
2023-02-02T17:45:23.547Z,5.04
2023-02-02T17:46:34.187Z,4.95
2023-02-02T17:47:42.911Z,5.00
2023-02-02T17:48:51.525Z,5.03
2023-02-02T17:50:00.996Z,5.05
2023-02-02T17:51:16.521Z,5.06
2023-02-02T17:52:25.683Z,4.98
2023-02-02T17:53:34.260Z,4.93
2023-02-02T17:54:42.849Z,4.87
2023-02-02T17:55:52.322Z,4.81
2023-02-02T17:57:01.000Z,4.74
2023-02-02T17:58:12.976Z,4.68
2023-02-02T17:59:22.704Z,4.61
2023-02-02T18:00:32.413Z,4.48
2023-02-02T18:01:42.660Z,4.41
2023-02-02T18:04:21.559Z,4.59
2023-02-02T18:05:30.735Z,4.54
2023-02-02T18:07:54.449Z,4.81
2023-02-02T18:09:03.786Z,4.75
2023-02-02T18:11:29.201Z,4.95
2023-02-02T18:12:39.144Z,4.92
2023-02-02T18:13:48.236Z,4.81
2023-02-02T18:16:14.588Z,4.90
2023-02-02T18:17:25.448Z,4.80
2023-02-02T18:18:33.999Z,4.83
2023-02-02T18:19:44.718Z,4.75
2023-02-02T18:20:56.500Z,4.73
2023-02-02T18:22:07.745Z,4.82
2023-02-02T18:23:18.960Z,4.83
2023-02-02T18:24:28.112Z,4.89
2023-02-02T18:26:54.329Z,5.18
2023-02-02T18:28:04.661Z,5.12
2023-02-02T18:29:14.282Z,5.20
2023-02-02T18:30:23.537Z,5.24
2023-02-02T18:31:33.312Z,5.31
2023-02-02T18:32:42.687Z,5.27
2023-02-02T18:33:52.150Z,5.28
2023-02-02T18:35:00.680Z,5.28
2023-02-02T18:36:19.442Z,5.24
2023-02-02T18:37:29.231Z,5.15
2023-02-02T18:39:57.756Z,5.22
2023-02-02T18:41:06.862Z,5.09
2023-02-02T18:42:17.906Z,5.03
2023-02-02T18:43:27.481Z,5.04
2023-02-02T18:44:38.013Z,5.10
2023-02-02T18:47:06.815Z,5.26
2023-02-02T18:48:17.258Z,5.20
2023-02-02T18:49:25.941Z,5.23
2023-02-02T18:50:35.640Z,5.29
2023-02-02T18:51:44.189Z,5.28
2023-02-02T18:52:53.985Z,5.22
2023-02-02T18:54:04.000Z,5.16
2023-02-02T18:55:12.565Z,5.11
2023-02-02T18:56:22.210Z,5.03
2023-02-02T18:57:31.760Z,4.95
2023-02-02T18:58:41.074Z,4.88
2023-02-02T18:59:52.642Z,4.80
2023-02-02T19:01:08.679Z,4.74
2023-02-02T19:02:19.667Z,4.73
2023-02-02T19:03:29.247Z,4.67
2023-02-02T19:04:38.325Z,4.65
2023-02-02T19:06:09.704Z,4.61
2023-02-02T19:07:37.795Z,4.57
2023-02-02T19:08:46.960Z,4.64
2023-02-02T19:11:17.390Z,4.80
2023-02-02T19:12:28.091Z,4.66
2023-02-02T19:13:36.732Z,4.63
2023-02-02T19:14:45.610Z,4.52
2023-02-02T19:15:54.584Z,4.57
2023-02-02T19:18:26.247Z,4.21
2023-02-02T19:19:39.518Z,4.15
2023-02-02T19:20:49.249Z,4.24
2023-02-02T19:22:02.394Z,4.34
2023-02-02T19:24:36.892Z,4.41
2023-02-02T19:25:51.540Z,4.28
2023-02-02T19:28:29.351Z,4.53
2023-02-02T19:33:40.230Z,4.77
2023-02-02T19:34:55.610Z,4.74
2023-02-02T19:36:08.795Z,4.74
2023-02-02T19:37:32.780Z,4.61
2023-02-02T19:40:09.533Z,4.81
2023-02-02T19:41:22.138Z,4.66
2023-02-02T19:42:33.021Z,4.66
2023-02-02T19:43:44.237Z,4.61
2023-02-02T19:46:16.083Z,4.74
2023-02-02T19:51:38.714Z,4.93
2023-02-02T19:52:52.197Z,4.93
2023-02-02T19:54:00.948Z,4.98
2023-02-02T21:07:09.012Z,2.58
2023-02-02T21:09:32.799Z,2.69
2023-02-02T21:10:41.570Z,2.61
2023-02-02T21:11:50.583Z,2.67
2023-02-02T21:12:59.339Z,2.86
2023-02-02T21:14:17.887Z,3.04
2023-02-02T21:15:27.032Z,3.19
2023-02-02T21:16:36.970Z,3.35
2023-02-02T21:17:45.992Z,3.50
2023-02-02T21:18:55.315Z,3.68
2023-02-02T21:20:05.142Z,3.83
2023-02-02T21:21:15.957Z,3.99
2023-02-02T21:22:24.707Z,4.12
2023-02-02T21:23:33.286Z,4.24
2023-02-02T21:24:41.962Z,4.31
2023-02-02T21:25:51.520Z,4.37
2023-02-02T21:27:01.672Z,4.23
2023-02-02T21:28:10.303Z,4.32
2023-02-02T21:29:19.370Z,4.37
2023-02-02T21:30:30.123Z,4.28
2023-02-02T21:31:39.922Z,4.35
2023-02-02T21:32:50.910Z,4.48
2023-02-02T21:33:59.687Z,4.55
2023-02-02T21:35:12.097Z,4.68
2023-02-02T21:36:32.203Z,4.75
2023-02-02T21:39:06.311Z,4.76
2023-02-02T21:40:22.037Z,4.65
2023-02-02T21:41:32.966Z,4.75
2023-02-02T21:44:00.909Z,4.97
2023-02-02T21:45:30.236Z,4.91
2023-02-02T21:46:40.011Z,4.98
2023-02-02T21:48:01.586Z,5.03
2023-02-02T21:49:20.454Z,5.07
2023-02-02T21:50:32.971Z,5.12
2023-02-02T21:51:43.073Z,5.16
2023-02-02T21:54:26.987Z,5.41
2023-02-02T21:56:54.247Z,5.28
2023-02-02T21:59:32.021Z,5.25
2023-02-02T22:00:42.228Z,5.15
2023-02-02T22:01:53.200Z,4.95
2023-02-02T22:03:02.756Z,4.92
2023-02-02T22:04:23.931Z,4.91
2023-02-02T22:05:37.199Z,4.91
2023-02-02T22:08:23.296Z,5.03
2023-02-02T22:10:54.793Z,5.10
2023-02-02T22:13:24.414Z,5.18
2023-02-02T22:15:55.988Z,5.02
2023-02-02T22:17:23.642Z,4.78
2023-02-02T22:18:36.184Z,4.81
2023-02-02T22:19:46.020Z,4.90
2023-02-02T22:20:56.307Z,4.89
2023-02-02T22:22:13.487Z,4.95
2023-02-02T22:23:25.908Z,4.87
2023-02-02T22:25:54.395Z,5.01
2023-02-02T22:27:04.604Z,4.97
2023-02-02T22:29:41.926Z,5.25
2023-02-02T22:30:52.877Z,5.10
2023-02-02T22:32:01.910Z,5.13
2023-02-02T22:33:12.567Z,5.18
2023-02-02T22:34:21.069Z,5.17
2023-02-02T22:35:30.859Z,5.12
2023-02-02T22:37:55.222Z,4.67
2023-02-02T22:39:05.133Z,4.57
2023-02-02T22:41:30.832Z,4.70
2023-02-02T22:42:40.334Z,4.65
2023-02-02T22:45:04.756Z,4.63
2023-02-02T22:46:14.220Z,4.52
2023-02-02T22:47:23.459Z,4.54
2023-02-02T22:48:32.540Z,4.65
2023-02-02T22:49:41.163Z,4.65
2023-02-02T22:50:49.866Z,4.75
2023-02-02T22:51:59.433Z,4.78
2023-02-02T22:54:25.138Z,4.94
2023-02-02T22:55:35.232Z,4.77
2023-02-02T22:56:44.398Z,4.60
2023-02-02T22:57:54.348Z,4.64
2023-02-02T23:00:22.441Z,4.91
2023-02-02T23:01:31.534Z,4.85
2023-02-02T23:02:41.315Z,4.84
2023-02-02T23:03:50.405Z,4.84
2023-02-02T23:05:00.165Z,4.82
2023-02-02T23:06:09.339Z,4.91
2023-02-02T23:07:18.637Z,4.97
2023-02-02T23:08:28.202Z,5.04
2023-02-02T23:09:37.206Z,5.09
2023-02-02T23:10:46.247Z,5.11
2023-02-02T23:11:55.919Z,4.97
2023-02-02T23:13:05.473Z,5.06
2023-02-02T23:14:15.091Z,5.05
2023-02-02T23:15:24.774Z,4.88
2023-02-02T23:16:34.525Z,4.78
2023-02-02T23:17:44.229Z,4.87
2023-02-02T23:18:53.353Z,4.87
2023-02-02T23:21:21.364Z,4.86
2023-02-02T23:22:30.721Z,4.84
2023-02-02T23:23:40.275Z,4.90
2023-02-02T23:24:49.569Z,4.95
2023-02-02T23:25:58.480Z,4.97
2023-02-02T23:27:08.761Z,4.99
2023-02-02T23:28:18.177Z,5.05
2023-02-02T23:29:27.015Z,5.03